Vermillion, South Dakota
Current Conditions -  °F | °C
As of 5:35 PM on Wednesday 22 Oct 2014 (Local Time) from KYKN Reporting Station
Scattered Clouds Scattered Clouds  
Wind Chill: 57°   Ceiling: Unl
Heat Index: 57°   Visibility: 9mi
Dew Point: 55°   Wind: 5mph
Humidity: 94%   Direction: 290°WNW
Pressure: 29.98"   Gusts: NA
Location:  42.79°N, 96.93°W
Report Text: KYKN 222235Z AUTO 29004KT 9SM FEW029 SCT036 14/13 A2998 RMK AO1 P0003
Loading
Personal Weather Stations






























Interactive Weather Map
Tropical Storm Tracking
New forecast layout! Learn more

10-Day Weather Forecast

Advertisements
Track Severe Weather on mobile